Ah Gwah Ching, Minnesota
Current Conditions -  °F | °C
As of 1:55 PM on Saturday 20 Dec 2014 (Local Time) from KY49 Reporting Station
Haze Haze  
Wind Chill: 23°   Ceiling: 600
Heat Index: 29°   Visibility: 3mi
Dew Point: 28°   Wind: 6mph
Humidity: 95%   Direction: 210°SSW
Pressure: 29.99"   Gusts: NA
Location:  47.08°N, 94.57°W
Report Text: KY49 201955Z AUTO 21005KT 3SM BR OVC006 M02/M02 A2999 RMK AO2 T10181025
Loading
Personal Weather Stations






























Interactive Weather Map New forecast layout! Learn more

10-Day Weather Forecast

Advertisements
Track Severe Weather on mobile